Time;durP1;ratioP1;P1;durP2;ratioP2;P2;SDS_P1;SDS_P2;PMS_P1;PMS_P2;Temp;Humidity;BMP_temperature;BMP_pressure;BME280_temperature;BME280_humidity;BME280_pressure;Samples;Min_cycle;Max_cycle;Signal;HPM_P1;HPM_P2
2023/10/16 00:02:12;;;;;;;9.23;3.35;;;;;;;;;;4988032;28;20030;-74
2023/10/16 00:04:44;;;;;;;9.00;3.13;;;;;;;;;;4996083;28;20041;-74
2023/10/16 00:07:16;;;;;;;5.57;2.88;;;;;;;;;;5002309;28;20030;-74
2023/10/16 00:09:41;;;;;;;6.82;2.70;;;;;;;;;;5003307;28;20149;-74
2023/10/16 00:12:07;;;;;;;9.00;3.25;;;;;;;;;;5002673;28;20128;-74
2023/10/16 00:14:36;;;;;;;6.70;2.83;;;;;;;;;;5006554;28;20029;-74
2023/10/16 00:17:09;;;;;;;8.73;2.65;;;;;;;;;;5004372;28;20308;-74
2023/10/16 00:19:38;;;;;;;10.52;2.75;;;;;;;;;;5001760;28;20169;-74
2023/10/16 00:22:13;;;;;;;4.18;2.45;;;;;;;;;;5007346;28;20539;-74
2023/10/16 00:24:45;;;;;;;6.43;3.30;;;;;;;;;;5007399;28;20037;-74
2023/10/16 00:27:14;;;;;;;6.35;2.88;;;;;;;;;;5006270;28;20069;-74
2023/10/16 00:29:41;;;;;;;5.35;2.88;;;;;;;;;;5010238;28;20037;-74
2023/10/16 00:32:07;;;;;;;5.45;2.80;;;;;;;;;;5015525;28;20118;-74
2023/10/16 00:34:33;;;;;;;6.97;2.88;;;;;;;;;;5016291;28;20045;-74
2023/10/16 00:37:01;;;;;;;5.72;2.65;;;;;;;;;;4995966;28;20043;-74
2023/10/16 00:39:30;;;;;;;8.07;2.72;;;;;;;;;;4987293;28;20113;-74
2023/10/16 00:41:57;;;;;;;5.78;2.58;;;;;;;;;;4986710;28;20046;-74
2023/10/16 00:44:35;;;;;;;7.13;3.15;;;;;;;;;;4987083;28;20030;-74
2023/10/16 00:47:01;;;;;;;6.78;3.25;;;;;;;;;;4988886;28;20037;-74
2023/10/16 00:49:28;;;;;;;6.47;3.03;;;;;;;;;;4994042;28;20077;-74
2023/10/16 00:51:54;;;;;;;7.63;3.08;;;;;;;;;;5001387;28;20271;-74
2023/10/16 00:54:28;;;;;;;5.43;2.85;;;;;;;;;;4985534;28;20425;-75
2023/10/16 00:56:57;;;;;;;7.82;3.00;;;;;;;;;;4997595;28;20038;-74
2023/10/16 00:59:23;;;;;;;5.38;3.03;;;;;;;;;;4988118;28;21003;-74
2023/10/16 01:01:52;;;;;;;5.00;3.03;;;;;;;;;;4988057;28;20041;-74
2023/10/16 01:04:19;;;;;;;7.88;3.00;;;;;;;;;;5000512;28;20132;-74
2023/10/16 01:06:45;;;;;;;7.63;2.90;;;;;;;;;;4999108;28;20038;-74
2023/10/16 01:09:22;;;;;;;7.13;3.60;;;;;;;;;;5004724;28;20069;-74
2023/10/16 01:11:51;;;;;;;8.20;2.80;;;;;;;;;;5006470;28;20108;-74
2023/10/16 01:14:17;;;;;;;5.10;2.70;;;;;;;;;;5006196;28;20119;-74
2023/10/16 01:16:43;;;;;;;6.70;2.97;;;;;;;;;;5004891;28;20623;-74
2023/10/16 01:19:09;;;;;;;5.88;3.10;;;;;;;;;;5003800;28;20048;-74
2023/10/16 01:21:35;;;;;;;7.10;2.80;;;;;;;;;;5004216;28;20121;-74
2023/10/16 01:24:11;;;;;;;3.63;2.38;;;;;;;;;;4995932;28;20144;-74
2023/10/16 01:26:37;;;;;;;4.95;2.90;;;;;;;;;;5003225;28;20022;-74
2023/10/16 01:29:07;;;;;;;5.40;2.78;;;;;;;;;;5006862;28;20025;-74
2023/10/16 01:31:33;;;;;;;5.32;2.92;;;;;;;;;;5005560;28;20157;-74
2023/10/16 01:33:59;;;;;;;7.18;3.20;;;;;;;;;;5001462;28;20091;-74
2023/10/16 01:36:24;;;;;;;5.72;3.35;;;;;;;;;;4987101;28;20042;-74
2023/10/16 01:38:50;;;;;;;5.88;2.80;;;;;;;;;;5005482;28;20029;-74
2023/10/16 01:41:18;;;;;;;6.90;3.35;;;;;;;;;;5006447;28;20079;-74
2023/10/16 01:43:43;;;;;;;7.75;3.00;;;;;;;;;;5004798;28;20037;-74
2023/10/16 01:46:12;;;;;;;6.75;3.25;;;;;;;;;;4992565;28;20043;-74
2023/10/16 01:48:44;;;;;;;5.72;3.13;;;;;;;;;;4987286;28;20134;-74
2023/10/16 01:51:18;;;;;;;7.43;3.38;;;;;;;;;;4991552;28;20122;-74
2023/10/16 01:53:44;;;;;;;6.95;3.15;;;;;;;;;;5013970;28;20066;-74
2023/10/16 01:56:12;;;;;;;5.55;2.78;;;;;;;;;;5021061;28;20236;-74
2023/10/16 01:58:45;;;;;;;6.00;3.15;;;;;;;;;;5007155;28;20068;-74
2023/10/16 02:01:16;;;;;;;5.88;2.60;;;;;;;;;;5000715;28;20114;-74
2023/10/16 02:03:44;;;;;;;5.20;3.00;;;;;;;;;;4997264;28;20042;-74
2023/10/16 02:06:13;;;;;;;5.78;2.90;;;;;;;;;;4984242;28;20038;-74
2023/10/16 02:08:39;;;;;;;6.18;2.97;;;;;;;;;;4985856;28;20041;-74
2023/10/16 02:11:06;;;;;;;8.23;3.60;;;;;;;;;;4984988;28;20588;-74
2023/10/16 02:13:35;;;;;;;7.85;4.05;;;;;;;;;;4985147;28;20038;-74
2023/10/16 02:16:02;;;;;;;5.78;2.97;;;;;;;;;;4987767;28;20474;-74
2023/10/16 02:18:36;;;;;;;7.03;3.08;;;;;;;;;;4998156;28;20026;-74
2023/10/16 02:21:01;;;;;;;6.47;3.05;;;;;;;;;;4994720;28;20053;-74
2023/10/16 02:23:30;;;;;;;6.60;3.15;;;;;;;;;;5005194;28;20053;-74
2023/10/16 02:25:56;;;;;;;6.13;3.25;;;;;;;;;;5005643;28;20021;-74
2023/10/16 02:28:22;;;;;;;6.97;3.00;;;;;;;;;;4995973;28;20038;-74
2023/10/16 02:30:49;;;;;;;7.18;3.00;;;;;;;;;;5001582;28;20042;-74
2023/10/16 02:33:26;;;;;;;7.22;3.20;;;;;;;;;;5001828;28;20069;-74
2023/10/16 02:35:53;;;;;;;4.55;2.72;;;;;;;;;;4992416;28;20040;-74
2023/10/16 02:38:27;;;;;;;5.13;2.60;;;;;;;;;;5005184;28;20053;-74
2023/10/16 02:40:54;;;;;;;4.18;2.65;;;;;;;;;;5003160;28;20155;-74
2023/10/16 02:43:23;;;;;;;7.22;3.40;;;;;;;;;;5005051;28;20034;-74
2023/10/16 02:45:52;;;;;;;5.57;2.90;;;;;;;;;;4996452;28;20033;-74
2023/10/16 02:48:19;;;;;;;5.97;3.00;;;;;;;;;;4993657;28;20042;-74
2023/10/16 02:50:50;;;;;;;6.72;3.05;;;;;;;;;;4998802;28;20129;-74
2023/10/16 02:53:22;;;;;;;8.70;3.22;;;;;;;;;;5002718;28;20171;-75
2023/10/16 02:55:53;;;;;;;9.30;3.80;;;;;;;;;;5004447;28;20041;-74
2023/10/16 02:58:22;;;;;;;6.30;2.92;;;;;;;;;;5005009;28;20030;-74
2023/10/16 03:00:49;;;;;;;8.40;3.50;;;;;;;;;;5001979;28;20033;-74
2023/10/16 03:03:18;;;;;;;5.88;2.50;;;;;;;;;;5001472;28;20044;-74
2023/10/16 03:05:44;;;;;;;9.52;3.30;;;;;;;;;;5004706;28;20056;-74
2023/10/16 03:08:10;;;;;;;9.02;3.28;;;;;;;;;;5019870;28;20394;-74
2023/10/16 03:10:36;;;;;;;5.38;3.00;;;;;;;;;;5006144;28;20034;-74
2023/10/16 03:13:06;;;;;;;5.65;2.97;;;;;;;;;;5013629;28;20034;-74
2023/10/16 03:15:47;;;;;;;5.32;2.75;;;;;;;;;;5016875;28;20049;-75
2023/10/16 03:18:17;;;;;;;6.63;3.13;;;;;;;;;;5003550;28;20084;-74
2023/10/16 03:20:47;;;;;;;8.38;3.47;;;;;;;;;;4989899;28;20611;-74
2023/10/16 03:23:13;;;;;;;7.03;3.28;;;;;;;;;;5002170;28;20021;-74
2023/10/16 03:28:11;;;;;;;7.22;3.63;;;;;;;;;;5003606;28;20128;-74
2023/10/16 03:30:37;;;;;;;5.13;2.85;;;;;;;;;;4997643;28;20042;-74
2023/10/16 03:33:03;;;;;;;5.75;2.72;;;;;;;;;;4987562;28;20041;-74
2023/10/16 03:35:31;;;;;;;8.43;3.15;;;;;;;;;;5003117;28;20111;-74
2023/10/16 03:37:57;;;;;;;6.53;3.20;;;;;;;;;;5004156;28;20749;-74
2023/10/16 03:40:27;;;;;;;5.80;3.13;;;;;;;;;;5003236;28;20052;-74
2023/10/16 03:42:53;;;;;;;7.93;3.15;;;;;;;;;;5001858;28;20108;-74
2023/10/16 03:45:21;;;;;;;6.72;3.17;;;;;;;;;;4997981;28;20128;-74
2023/10/16 03:48:03;;;;;;;5.53;3.17;;;;;;;;;;4994288;28;20049;-74
2023/10/16 03:50:34;;;;;;;6.53;3.17;;;;;;;;;;5002567;28;20037;-74
2023/10/16 03:53:03;;;;;;;7.28;2.78;;;;;;;;;;5003849;28;20030;-73
2023/10/16 03:55:31;;;;;;;11.43;2.97;;;;;;;;;;5001254;28;20046;-74
2023/10/16 03:57:57;;;;;;;10.98;3.40;;;;;;;;;;5003628;28;20049;-74
2023/10/16 04:03:09;;;;;;;6.63;2.90;;;;;;;;;;5002215;28;20041;-74
2023/10/16 04:05:45;;;;;;;8.90;2.90;;;;;;;;;;5001385;28;20666;-74
2023/10/16 04:08:14;;;;;;;7.32;3.38;;;;;;;;;;5003411;28;20512;-74
2023/10/16 04:10:46;;;;;;;6.90;3.17;;;;;;;;;;5003336;28;20046;-74
2023/10/16 04:13:12;;;;;;;5.30;3.30;;;;;;;;;;5001547;28;20030;-74
2023/10/16 04:18:17;;;;;;;8.00;3.25;;;;;;;;;;5002913;28;20132;-74
2023/10/16 04:20:43;;;;;;;6.60;2.97;;;;;;;;;;5002947;28;20030;-74
2023/10/16 04:23:29;;;;;;;9.00;3.95;;;;;;;;;;5004508;28;20596;-74
2023/10/16 04:37:24;;;;;;;8.65;2.95;;;;;;;;;;5047894;28;20008;-74
2023/10/16 04:50:37;;;;;;;5.93;3.08;;;;;;;;;;5003088;28;20424;-74
2023/10/16 04:53:09;;;;;;;6.15;3.20;;;;;;;;;;5002167;28;20171;-74
2023/10/16 05:01:22;;;;;;;5.30;3.00;;;;;;;;;;5024787;28;20087;-74
2023/10/16 05:11:27;;;;;;;10.60;3.20;;;;;;;;;;5026233;28;20495;-74
2023/10/16 05:16:31;;;;;;;10.23;3.90;;;;;;;;;;5023004;28;20041;-74
2023/10/16 05:19:03;;;;;;;13.32;4.60;;;;;;;;;;5025172;28;20072;-74
2023/10/16 06:16:01;;;;;;;8.38;4.30;;;;;;;;;;5020495;28;20052;-74
2023/10/16 06:18:30;;;;;;;9.90;4.15;;;;;;;;;;5015453;28;20041;-74
2023/10/16 06:21:00;;;;;;;6.93;4.30;;;;;;;;;;5006677;28;20033;-74
2023/10/16 06:23:28;;;;;;;9.93;4.63;;;;;;;;;;5012010;28;20061;-74
2023/10/16 06:25:55;;;;;;;8.30;3.95;;;;;;;;;;5024824;28;20029;-74
2023/10/16 06:28:21;;;;;;;6.72;3.97;;;;;;;;;;5019456;28;20041;-74
2023/10/16 06:30:46;;;;;;;6.40;3.75;;;;;;;;;;5021903;28;20060;-74
2023/10/16 06:33:14;;;;;;;9.90;4.32;;;;;;;;;;5002614;28;20045;-74
2023/10/16 06:35:41;;;;;;;9.30;4.07;;;;;;;;;;5021795;28;20057;-73
2023/10/16 06:38:11;;;;;;;7.60;3.75;;;;;;;;;;5024071;28;20591;-74
2023/10/16 06:40:37;;;;;;;11.27;4.10;;;;;;;;;;5023861;28;20065;-73
2023/10/16 06:43:13;;;;;;;7.75;4.38;;;;;;;;;;5024180;28;20145;-74
2023/10/16 06:45:41;;;;;;;14.70;4.03;;;;;;;;;;5015157;28;20034;-73
2023/10/16 06:48:14;;;;;;;9.02;4.18;;;;;;;;;;5021168;28;20069;-73
2023/10/16 06:50:54;;;;;;;11.20;4.60;;;;;;;;;;5019747;28;20543;-73
2023/10/16 06:53:22;;;;;;;30.95;11.82;;;;;;;;;;5019279;28;20442;-73
2023/10/16 06:55:50;;;;;;;12.20;5.40;;;;;;;;;;5009491;28;20022;-74
2023/10/16 06:58:18;;;;;;;8.52;4.50;;;;;;;;;;5015937;28;20882;-73
2023/10/16 07:00:47;;;;;;;9.68;4.57;;;;;;;;;;5028524;28;20047;-72
2023/10/16 07:03:13;;;;;;;8.48;4.13;;;;;;;;;;4993404;28;20045;-73
2023/10/16 07:05:42;;;;;;;9.90;4.75;;;;;;;;;;4997317;28;20153;-73
2023/10/16 07:08:16;;;;;;;11.10;5.47;;;;;;;;;;5012453;28;20056;-73
2023/10/16 07:10:51;;;;;;;9.98;4.45;;;;;;;;;;5020386;28;20053;-75
2023/10/16 07:13:26;;;;;;;8.80;4.68;;;;;;;;;;5020925;28;20034;-75
2023/10/16 07:16:00;;;;;;;13.43;4.50;;;;;;;;;;5031549;28;20463;-75
2023/10/16 07:18:26;;;;;;;9.57;4.30;;;;;;;;;;5028421;28;20131;-75
2023/10/16 07:23:34;;;;;;;9.75;3.50;;;;;;;;;;5021539;28;20534;-75
2023/10/16 07:26:01;;;;;;;11.48;3.72;;;;;;;;;;5006295;28;20463;-75
2023/10/16 07:28:28;;;;;;;11.18;4.40;;;;;;;;;;5022666;28;20049;-76
2023/10/16 07:30:58;;;;;;;11.80;4.30;;;;;;;;;;5017641;28;20136;-75
2023/10/16 07:33:23;;;;;;;10.35;4.38;;;;;;;;;;5021661;28;20457;-76
2023/10/16 07:35:54;;;;;;;8.45;4.22;;;;;;;;;;5008325;28;20044;-76
2023/10/16 07:38:21;;;;;;;9.02;4.53;;;;;;;;;;5018458;28;20025;-76
2023/10/16 07:40:51;;;;;;;11.13;5.20;;;;;;;;;;5005682;28;20025;-75
2023/10/16 07:43:17;;;;;;;12.52;4.53;;;;;;;;;;5021684;28;20045;-76
2023/10/16 07:45:45;;;;;;;15.10;4.53;;;;;;;;;;5004018;28;20124;-76
2023/10/16 07:48:27;;;;;;;11.25;4.90;;;;;;;;;;5005024;28;20037;-76
2023/10/16 07:50:53;;;;;;;12.18;5.78;;;;;;;;;;5004432;28;20045;-76
2023/10/16 07:53:18;;;;;;;12.25;5.97;;;;;;;;;;5003187;28;20029;-75
2023/10/16 07:55:50;;;;;;;15.77;5.65;;;;;;;;;;5020769;28;20079;-73
2023/10/16 07:58:23;;;;;;;13.60;6.47;;;;;;;;;;4998421;28;20038;-74
2023/10/16 08:03:36;;;;;;;10.18;5.63;;;;;;;;;;5022322;28;20048;-74
2023/10/16 08:06:06;;;;;;;10.05;5.50;;;;;;;;;;5003798;28;20108;-74
2023/10/16 08:08:38;;;;;;;13.27;5.07;;;;;;;;;;5002184;28;20399;-74
2023/10/16 08:11:14;;;;;;;10.98;5.35;;;;;;;;;;5004441;28;20493;-75
2023/10/16 08:13:46;;;;;;;13.25;5.97;;;;;;;;;;5020039;28;20038;-74
2023/10/16 08:16:21;;;;;;;14.85;5.75;;;;;;;;;;5002497;28;20042;-75
2023/10/16 08:18:51;;;;;;;16.90;4.82;;;;;;;;;;5011641;28;20455;-74
2023/10/16 08:21:26;;;;;;;10.35;4.38;;;;;;;;;;5003101;28;20049;-74
2023/10/16 08:23:54;;;;;;;20.00;5.13;;;;;;;;;;5012195;28;20048;-75
2023/10/16 08:26:28;;;;;;;13.45;4.80;;;;;;;;;;4999925;28;20036;-74
2023/10/16 08:34:35;;;;;;;19.63;4.78;;;;;;;;;;4994083;28;20053;-74
2023/10/16 08:37:04;;;;;;;9.30;4.20;;;;;;;;;;5019237;28;20141;-74
2023/10/16 08:39:36;;;;;;;12.52;4.68;;;;;;;;;;5014899;28;20578;-73
2023/10/16 08:42:20;;;;;;;14.10;4.80;;;;;;;;;;5001111;28;20091;-74
2023/10/16 08:47:32;;;;;;;11.98;4.38;;;;;;;;;;5003036;28;20092;-73
2023/10/16 08:49:59;;;;;;;14.27;4.32;;;;;;;;;;5003568;28;20592;-73
2023/10/16 08:52:33;;;;;;;11.68;4.72;;;;;;;;;;4987076;28;20543;-73
2023/10/16 08:55:14;;;;;;;14.55;4.57;;;;;;;;;;5019768;28;20045;-73
2023/10/16 08:57:40;;;;;;;11.98;4.97;;;;;;;;;;5016660;28;20045;-74
2023/10/16 09:00:10;;;;;;;10.02;3.95;;;;;;;;;;5023309;28;20582;-73
2023/10/16 09:02:39;;;;;;;15.57;4.43;;;;;;;;;;5006567;28;20021;-74
2023/10/16 09:05:08;;;;;;;9.18;3.65;;;;;;;;;;5025159;28;20511;-73
2023/10/16 09:07:34;;;;;;;11.25;3.58;;;;;;;;;;5023344;28;20045;-74
2023/10/16 09:10:02;;;;;;;14.88;3.90;;;;;;;;;;5008613;28;20041;-73
2023/10/16 09:12:27;;;;;;;11.35;3.65;;;;;;;;;;5002166;28;20715;-73
2023/10/16 09:15:09;;;;;;;7.32;3.20;;;;;;;;;;5003933;28;20584;-73
2023/10/16 09:17:35;;;;;;;16.50;3.72;;;;;;;;;;5003683;28;20034;-73
2023/10/16 09:20:02;;;;;;;16.17;4.32;;;;;;;;;;5003961;28;20402;-73
2023/10/16 09:22:29;;;;;;;14.32;3.13;;;;;;;;;;5003359;28;20121;-73
2023/10/16 09:24:55;;;;;;;12.98;4.18;;;;;;;;;;5003817;28;20536;-73
2023/10/16 09:27:29;;;;;;;14.27;3.75;;;;;;;;;;4986110;28;20046;-73
2023/10/16 09:29:58;;;;;;;9.73;4.25;;;;;;;;;;4985155;28;20121;-73
2023/10/16 09:32:35;;;;;;;10.32;3.90;;;;;;;;;;5002159;28;20520;-73
2023/10/16 09:35:11;;;;;;;9.50;4.13;;;;;;;;;;5004070;28;20164;-73
2023/10/16 09:37:37;;;;;;;15.05;4.05;;;;;;;;;;5010403;28;20064;-73
2023/10/16 09:43:12;;;;;;;11.07;4.82;;;;;;;;;;5013770;28;20583;-73
2023/10/16 09:45:38;;;;;;;10.20;3.42;;;;;;;;;;5022292;28;20526;-73
2023/10/16 09:48:08;;;;;;;13.68;3.45;;;;;;;;;;5023081;28;20044;-74
2023/10/16 09:50:38;;;;;;;8.93;3.30;;;;;;;;;;5025055;28;20063;-73
2023/10/16 09:53:07;;;;;;;9.05;3.72;;;;;;;;;;5031072;28;20033;-73
2023/10/16 09:55:38;;;;;;;11.82;3.20;;;;;;;;;;5039898;28;20055;-73
2023/10/16 09:58:06;;;;;;;5.70;2.80;;;;;;;;;;5025159;28;20806;-73
2023/10/16 10:00:31;;;;;;;7.80;2.60;;;;;;;;;;5019578;28;20037;-73
2023/10/16 10:03:12;;;;;;;3.72;2.00;;;;;;;;;;5006937;28;20077;-73
2023/10/16 10:05:48;;;;;;;8.55;2.38;;;;;;;;;;5022928;28;20071;-74
2023/10/16 10:08:27;;;;;;;4.97;1.42;;;;;;;;;;5003540;28;20036;-73
2023/10/16 10:11:23;;;;;;;5.65;2.03;;;;;;;;;;5003406;28;20736;-73
2023/10/16 10:17:01;;;;;;;6.43;2.70;;;;;;;;;;4996896;28;20046;-73
2023/10/16 10:19:36;;;;;;;6.90;2.22;;;;;;;;;;4979986;28;20046;-74
2023/10/16 10:22:17;;;;;;;4.00;1.85;;;;;;;;;;4991717;28;20042;-73
2023/10/16 10:25:08;;;;;;;6.38;2.33;;;;;;;;;;4982153;28;20467;-73
2023/10/16 10:27:41;;;;;;;6.55;2.58;;;;;;;;;;5008517;28;20095;-74
2023/10/16 10:30:10;;;;;;;4.60;1.85;;;;;;;;;;4999914;28;20042;-74
2023/10/16 10:32:37;;;;;;;6.78;2.20;;;;;;;;;;5012994;28;20487;-74
2023/10/16 10:35:28;;;;;;;7.63;1.98;;;;;;;;;;5009754;28;21009;-74
2023/10/16 10:38:17;;;;;;;5.50;2.25;;;;;;;;;;4987021;28;20088;-74
2023/10/16 10:41:13;;;;;;;7.82;2.00;;;;;;;;;;5000022;28;20520;-74
2023/10/16 10:43:48;;;;;;;5.50;1.75;;;;;;;;;;5020404;28;20041;-74
2023/10/16 10:46:26;;;;;;;4.40;1.40;;;;;;;;;;5021117;28;20088;-73
2023/10/16 10:48:56;;;;;;;3.75;1.52;;;;;;;;;;5021749;28;20046;-74
2023/10/16 10:51:22;;;;;;;5.97;2.00;;;;;;;;;;5021380;28;20037;-74
2023/10/16 10:53:54;;;;;;;4.95;1.73;;;;;;;;;;5002331;28;20053;-74
2023/10/16 10:56:22;;;;;;;5.23;1.40;;;;;;;;;;5011898;28;20068;-74
2023/10/16 10:58:49;;;;;;;3.85;1.67;;;;;;;;;;5011343;28;20108;-74
2023/10/16 11:01:26;;;;;;;4.25;1.50;;;;;;;;;;5011691;28;20045;-74
2023/10/16 11:03:53;;;;;;;3.05;1.42;;;;;;;;;;5001074;28;20481;-74
2023/10/16 11:06:31;;;;;;;4.50;1.60;;;;;;;;;;5020729;28;20049;-74
2023/10/16 11:09:10;;;;;;;4.50;2.00;;;;;;;;;;5022288;28;20132;-73
2023/10/16 11:11:39;;;;;;;3.60;1.50;;;;;;;;;;5007834;28;20045;-74
2023/10/16 11:14:04;;;;;;;1.88;1.17;;;;;;;;;;5033310;28;20108;-74
2023/10/16 11:16:30;;;;;;;4.82;1.50;;;;;;;;;;5015952;28;20069;-74
2023/10/16 11:19:00;;;;;;;3.83;1.27;;;;;;;;;;5021601;28;20566;-74
2023/10/16 11:21:27;;;;;;;2.17;1.02;;;;;;;;;;5003317;28;20067;-74
2023/10/16 11:24:00;;;;;;;3.25;1.10;;;;;;;;;;5003450;28;20041;-74
2023/10/16 11:26:28;;;;;;;3.33;1.55;;;;;;;;;;5019775;28;20036;-74
2023/10/16 11:28:54;;;;;;;3.67;1.13;;;;;;;;;;5020411;28;20571;-74
2023/10/16 11:31:21;;;;;;;3.30;1.17;;;;;;;;;;5021600;28;20037;-74
2023/10/16 11:34:21;;;;;;;3.90;1.17;;;;;;;;;;5019839;28;20130;-74
2023/10/16 11:36:40;;;;;;;3.22;0.93;;;;;;;;;;5020736;28;20115;-74
2023/10/16 11:39:07;;;;;;;2.08;0.98;;;;;;;;;;5021110;28;20603;-73
2023/10/16 11:41:34;;;;;;;4.28;1.05;;;;;;;;;;5021465;28;20032;-74
2023/10/16 11:44:01;;;;;;;4.88;0.98;;;;;;;;;;5022496;28;20018;-74
2023/10/16 11:46:34;;;;;;;4.68;1.05;;;;;;;;;;5014641;28;20033;-74
2023/10/16 11:49:29;;;;;;;3.80;0.90;;;;;;;;;;5002055;28;20268;-74
2023/10/16 11:51:51;;;;;;;2.83;0.95;;;;;;;;;;5001161;28;20038;-74
2023/10/16 11:54:23;;;;;;;2.78;1.17;;;;;;;;;;5000838;28;20077;-74
2023/10/16 11:56:53;;;;;;;1.77;1.10;;;;;;;;;;5000761;28;20046;-74
2023/10/16 11:59:19;;;;;;;4.97;1.38;;;;;;;;;;5009974;28;20596;-74
2023/10/16 12:01:46;;;;;;;4.43;1.50;;;;;;;;;;5002619;28;20030;-74
2023/10/16 12:04:16;;;;;;;3.20;1.30;;;;;;;;;;5002723;28;20432;-74
2023/10/16 12:06:44;;;;;;;2.40;1.10;;;;;;;;;;5002788;28;20038;-74
2023/10/16 12:09:13;;;;;;;3.83;1.45;;;;;;;;;;5020933;28;20172;-74
2023/10/16 12:11:42;;;;;;;4.00;1.50;;;;;;;;;;5020224;28;20056;-74
2023/10/16 12:14:14;;;;;;;8.05;1.85;;;;;;;;;;5001387;28;20033;-74
2023/10/16 12:16:41;;;;;;;5.15;1.63;;;;;;;;;;4999327;28;20046;-74
2023/10/16 12:19:09;;;;;;;3.08;1.30;;;;;;;;;;5001063;28;20061;-74
2023/10/16 12:21:34;;;;;;;9.20;2.20;;;;;;;;;;5000723;28;20054;-74
2023/10/16 12:24:01;;;;;;;4.18;1.75;;;;;;;;;;4983435;28;20045;-74
2023/10/16 12:26:27;;;;;;;4.63;1.50;;;;;;;;;;5001323;28;20033;-74
2023/10/16 12:28:52;;;;;;;5.50;1.40;;;;;;;;;;5003444;28;20030;-74
2023/10/16 12:31:18;;;;;;;6.10;1.67;;;;;;;;;;5006782;28;20057;-73
2023/10/16 12:33:43;;;;;;;3.45;1.48;;;;;;;;;;5016747;28;20050;-73
2023/10/16 12:36:10;;;;;;;2.75;1.02;;;;;;;;;;5016451;28;20034;-74
2023/10/16 12:38:36;;;;;;;2.10;1.23;;;;;;;;;;5007087;28;20037;-73
2023/10/16 12:41:05;;;;;;;2.72;1.40;;;;;;;;;;5003936;28;20033;-73
2023/10/16 12:43:30;;;;;;;5.72;1.45;;;;;;;;;;5001722;28;20038;-73
2023/10/16 12:45:58;;;;;;;6.40;1.80;;;;;;;;;;5000155;28;20038;-74
2023/10/16 12:48:30;;;;;;;5.95;1.70;;;;;;;;;;5000924;28;20869;-74
2023/10/16 12:50:59;;;;;;;4.00;1.80;;;;;;;;;;5000872;28;20042;-73
2023/10/16 12:53:27;;;;;;;8.07;1.92;;;;;;;;;;5000742;28;20582;-74
2023/10/16 12:55:55;;;;;;;5.93;1.70;;;;;;;;;;5000985;28;20040;-74
2023/10/16 12:58:22;;;;;;;6.10;1.77;;;;;;;;;;5011199;28;20097;-73
2023/10/16 13:00:50;;;;;;;4.47;1.90;;;;;;;;;;5020542;28;20071;-73
2023/10/16 13:03:16;;;;;;;5.75;1.65;;;;;;;;;;5020151;28;20037;-74
2023/10/16 13:05:42;;;;;;;3.53;1.35;;;;;;;;;;5019849;28;20474;-74
2023/10/16 13:08:08;;;;;;;4.88;1.55;;;;;;;;;;5020665;28;20583;-74
2023/10/16 13:10:35;;;;;;;4.40;1.65;;;;;;;;;;5019719;28;20124;-74
2023/10/16 13:13:00;;;;;;;4.18;1.63;;;;;;;;;;5020796;28;20041;-73
2023/10/16 13:15:29;;;;;;;6.80;1.50;;;;;;;;;;5001011;28;20037;-73
2023/10/16 13:17:55;;;;;;;3.22;1.50;;;;;;;;;;5002427;28;20547;-74
2023/10/16 13:20:26;;;;;;;3.13;1.70;;;;;;;;;;5002781;28;20036;-74
2023/10/16 13:22:52;;;;;;;4.80;1.40;;;;;;;;;;5023696;28;20435;-74
2023/10/16 13:25:35;;;;;;;2.72;1.63;;;;;;;;;;5022885;28;20856;-75
2023/10/16 13:28:01;;;;;;;3.00;1.10;;;;;;;;;;5005316;28;20814;-74
2023/10/16 13:30:26;;;;;;;4.35;1.25;;;;;;;;;;5022750;28;20512;-73
2023/10/16 13:32:52;;;;;;;3.15;1.40;;;;;;;;;;5022406;28;20413;-73
2023/10/16 13:35:20;;;;;;;3.30;1.33;;;;;;;;;;5021767;28;20182;-73
2023/10/16 13:37:47;;;;;;;1.77;0.93;;;;;;;;;;5021176;28;20601;-73
2023/10/16 13:40:28;;;;;;;1.77;1.10;;;;;;;;;;5022383;28;20064;-73
2023/10/16 13:42:55;;;;;;;6.30;1.25;;;;;;;;;;5022187;28;20041;-73
2023/10/16 13:45:21;;;;;;;2.55;1.40;;;;;;;;;;5015324;28;20096;-74
2023/10/16 13:47:49;;;;;;;2.65;1.30;;;;;;;;;;5008574;28;20132;-74
2023/10/16 13:50:16;;;;;;;1.00;0.90;;;;;;;;;;5025255;28;20029;-73
2023/10/16 13:52:45;;;;;;;4.10;1.30;;;;;;;;;;5028608;28;20041;-75
2023/10/16 13:55:14;;;;;;;4.07;1.00;;;;;;;;;;5034600;28;20045;-74
2023/10/16 13:57:43;;;;;;;2.50;1.23;;;;;;;;;;5016451;28;20042;-74
2023/10/16 14:00:28;;;;;;;2.15;1.38;;;;;;;;;;5011336;28;20037;-73
2023/10/16 14:03:08;;;;;;;4.57;0.82;;;;;;;;;;5001675;28;20054;-73
2023/10/16 14:05:41;;;;;;;2.33;1.20;;;;;;;;;;5002827;28;20885;-73
2023/10/16 14:08:14;;;;;;;2.10;1.05;;;;;;;;;;5003081;28;20911;-74
2023/10/16 14:10:52;;;;;;;3.72;1.05;;;;;;;;;;5001118;28;20044;-74
2023/10/16 14:13:21;;;;;;;2.63;0.93;;;;;;;;;;5001303;28;20030;-73
2023/10/16 14:15:50;;;;;;;1.67;0.80;;;;;;;;;;5002561;28;20070;-74
2023/10/16 14:18:20;;;;;;;4.22;1.23;;;;;;;;;;4999924;28;20038;-73
2023/10/16 14:20:47;;;;;;;1.85;1.02;;;;;;;;;;5002990;28;20038;-74
2023/10/16 14:23:13;;;;;;;4.38;1.45;;;;;;;;;;5003281;28;20049;-74
2023/10/16 14:25:57;;;;;;;3.78;1.10;;;;;;;;;;5001161;28;20042;-74
2023/10/16 14:28:27;;;;;;;;;;;;;;;;;;5002973;28;20037;-74
2023/10/16 14:30:54;;;;;;;1.42;0.90;;;;;;;;;;4999118;28;20020;-73
2023/10/16 14:33:23;;;;;;;2.17;1.00;;;;;;;;;;4994190;28;20041;-73
2023/10/16 14:35:49;;;;;;;1.50;0.77;;;;;;;;;;5001380;28;20052;-73
2023/10/16 14:38:19;;;;;;;3.72;1.05;;;;;;;;;;5003140;28;20029;-73
2023/10/16 14:40:45;;;;;;;1.70;1.00;;;;;;;;;;4998677;28;20041;-73
2023/10/16 14:43:10;;;;;;;2.17;1.10;;;;;;;;;;4998802;28;20608;-75
2023/10/16 14:45:37;;;;;;;1.55;1.00;;;;;;;;;;4997558;28;20072;-74
2023/10/16 14:48:09;;;;;;;2.28;1.08;;;;;;;;;;4994154;28;20149;-75
2023/10/16 14:50:35;;;;;;;3.23;1.23;;;;;;;;;;4983535;28;20041;-75
2023/10/16 14:53:01;;;;;;;5.65;1.75;;;;;;;;;;4994040;28;20038;-75
2023/10/16 14:55:27;;;;;;;4.10;1.35;;;;;;;;;;4988151;28;20042;-75
2023/10/16 14:57:55;;;;;;;3.03;1.67;;;;;;;;;;4992578;28;20113;-75
2023/10/16 15:00:27;;;;;;;5.03;1.65;;;;;;;;;;4998942;28;20034;-75
2023/10/16 15:02:55;;;;;;;2.47;1.70;;;;;;;;;;5003641;28;20053;-75
2023/10/16 15:05:21;;;;;;;3.05;1.50;;;;;;;;;;5003856;28;20394;-75
2023/10/16 15:07:47;;;;;;;4.05;1.60;;;;;;;;;;5005057;28;20536;-75
2023/10/16 15:10:12;;;;;;;4.88;1.48;;;;;;;;;;5006273;28;20069;-75
2023/10/16 15:12:39;;;;;;;3.35;1.20;;;;;;;;;;5016219;28;20091;-75
2023/10/16 15:15:08;;;;;;;2.75;1.70;;;;;;;;;;5021295;28;20539;-75
2023/10/16 15:17:35;;;;;;;2.63;1.10;;;;;;;;;;5006327;28;20032;-75
2023/10/16 15:20:03;;;;;;;3.33;1.23;;;;;;;;;;5003572;28;20583;-76
2023/10/16 15:22:29;;;;;;;2.47;1.40;;;;;;;;;;5002506;28;20044;-75
2023/10/16 15:24:55;;;;;;;4.18;1.67;;;;;;;;;;5003728;28;20054;-76
2023/10/16 15:27:20;;;;;;;3.85;1.60;;;;;;;;;;5002686;28;20041;-76
2023/10/16 15:29:46;;;;;;;5.60;1.80;;;;;;;;;;5003583;28;20038;-75
2023/10/16 15:32:12;;;;;;;3.05;1.60;;;;;;;;;;5004139;28;20088;-76
2023/10/16 15:34:38;;;;;;;4.82;1.42;;;;;;;;;;5003266;28;20131;-75
2023/10/16 15:37:04;;;;;;;4.65;1.30;;;;;;;;;;5004127;28;20064;-75
2023/10/16 15:39:29;;;;;;;7.88;1.40;;;;;;;;;;5003595;28;20073;-76
2023/10/16 15:41:54;;;;;;;5.22;2.17;;;;;;;;;;5003558;28;20041;-75
2023/10/16 15:44:22;;;;;;;5.45;1.80;;;;;;;;;;4999886;28;20022;-75
2023/10/16 15:46:48;;;;;;;2.97;1.73;;;;;;;;;;4992033;28;20410;-76
2023/10/16 15:49:19;;;;;;;3.33;1.63;;;;;;;;;;4983866;28;20044;-76
2023/10/16 15:51:44;;;;;;;3.90;1.75;;;;;;;;;;4984294;28;20105;-75
2023/10/16 15:54:14;;;;;;;3.78;1.80;;;;;;;;;;4983564;28;20544;-75
2023/10/16 15:56:40;;;;;;;3.63;1.80;;;;;;;;;;4998394;28;20156;-76
2023/10/16 15:59:05;;;;;;;4.20;2.03;;;;;;;;;;5001032;28;20109;-75
2023/10/16 16:01:31;;;;;;;4.82;1.98;;;;;;;;;;4983800;28;20046;-75
2023/10/16 16:03:58;;;;;;;6.85;2.05;;;;;;;;;;4981631;28;20596;-75
2023/10/16 16:06:24;;;;;;;5.85;2.42;;;;;;;;;;4982590;28;20038;-75
2023/10/16 16:08:50;;;;;;;5.93;2.50;;;;;;;;;;4983563;28;20037;-75
2023/10/16 16:11:19;;;;;;;6.35;3.55;;;;;;;;;;4983718;28;20038;-75
2023/10/16 16:13:45;;;;;;;7.00;3.25;;;;;;;;;;4983817;28;20062;-76
2023/10/16 16:16:11;;;;;;;4.53;2.58;;;;;;;;;;4982208;28;20525;-76
2023/10/16 16:18:37;;;;;;;8.02;3.05;;;;;;;;;;4985531;28;20066;-76
2023/10/16 16:21:04;;;;;;;5.32;3.78;;;;;;;;;;4987323;28;20066;-75
2023/10/16 16:23:31;;;;;;;11.70;4.50;;;;;;;;;;4982215;28;20044;-76
2023/10/16 16:25:56;;;;;;;8.25;4.00;;;;;;;;;;4984342;28;20157;-76
2023/10/16 16:28:22;;;;;;;6.55;4.20;;;;;;;;;;4984519;28;20125;-76
2023/10/16 16:30:47;;;;;;;12.30;4.72;;;;;;;;;;4989202;28;20034;-76
2023/10/16 16:33:13;;;;;;;9.50;4.82;;;;;;;;;;4995914;28;20054;-75
2023/10/16 16:35:39;;;;;;;7.55;4.43;;;;;;;;;;4989458;28;20034;-75
2023/10/16 16:38:07;;;;;;;9.20;4.28;;;;;;;;;;4992987;28;20030;-74
2023/10/16 16:40:37;;;;;;;8.27;4.35;;;;;;;;;;4998363;28;20042;-74
2023/10/16 16:43:03;;;;;;;7.35;4.43;;;;;;;;;;4990947;28;20098;-75
2023/10/16 16:45:29;;;;;;;9.75;3.63;;;;;;;;;;5000063;28;20048;-75
2023/10/16 16:47:54;;;;;;;7.93;3.40;;;;;;;;;;5001146;28;20037;-75
2023/10/16 16:50:21;;;;;;;10.75;3.83;;;;;;;;;;5001914;28;20527;-75
2023/10/16 16:52:49;;;;;;;7.25;4.05;;;;;;;;;;5002712;28;20579;-74
2023/10/16 16:55:16;;;;;;;7.47;3.47;;;;;;;;;;5002880;28;20049;-74